createdAt,value
2023-09-30T00:00:26.089Z,1017.17
2023-09-30T00:01:26.068Z,1017.27
2023-09-30T00:02:25.963Z,1017.26
2023-09-30T00:03:26.785Z,1017.25
2023-09-30T00:04:26.018Z,1017.28
2023-09-30T00:05:25.918Z,1017.32
2023-09-30T00:06:25.980Z,1017.34
2023-09-30T00:07:25.908Z,1017.38
2023-09-30T00:08:25.928Z,1017.40
2023-09-30T00:09:25.882Z,1017.41
2023-09-30T00:10:25.899Z,1017.45
2023-09-30T00:11:25.867Z,1017.48
2023-09-30T00:12:25.885Z,1017.49
2023-09-30T00:13:25.834Z,1017.52
2023-09-30T00:14:25.840Z,1017.51
2023-09-30T00:15:26.019Z,1017.55
2023-09-30T00:16:25.876Z,1017.57
2023-09-30T00:17:25.781Z,1017.59
2023-09-30T00:18:25.807Z,1017.59
2023-09-30T00:19:25.758Z,1017.61
2023-09-30T00:20:26.280Z,1017.61
2023-09-30T00:21:26.615Z,1017.64
2023-09-30T00:22:25.735Z,1017.66
2023-09-30T00:23:25.716Z,1017.65
2023-09-30T00:24:25.709Z,1017.69
2023-09-30T00:25:25.716Z,1017.67
2023-09-30T00:26:25.683Z,1017.68
2023-09-30T00:27:25.715Z,1017.68
2023-09-30T00:28:25.658Z,1017.72
2023-09-30T00:29:25.629Z,1017.77
2023-09-30T00:30:25.734Z,1017.81
2023-09-30T00:31:25.679Z,1017.77
2023-09-30T00:32:25.624Z,1017.79
2023-09-30T00:33:25.652Z,1017.80
2023-09-30T00:34:25.590Z,1017.82
2023-09-30T00:35:25.567Z,1017.83
2023-09-30T00:36:26.130Z,1017.84
2023-09-30T00:37:25.548Z,1017.86
2023-09-30T00:38:25.550Z,1017.83
2023-09-30T00:39:25.561Z,1017.86
2023-09-30T00:40:25.527Z,1017.88
2023-09-30T00:41:25.548Z,1017.89
2023-09-30T00:42:25.535Z,1017.93
2023-09-30T00:43:25.506Z,1017.94
2023-09-30T00:44:25.461Z,1017.96
2023-09-30T00:45:25.510Z,1017.97
2023-09-30T00:46:25.491Z,1017.96
2023-09-30T00:47:25.523Z,1017.96
2023-09-30T00:48:25.971Z,1017.98
2023-09-30T00:49:25.415Z,1017.98
2023-09-30T00:50:25.405Z,1017.99
2023-09-30T00:51:25.475Z,1017.99
2023-09-30T00:52:25.402Z,1018.01
2023-09-30T00:53:25.376Z,1017.99
2023-09-30T00:54:25.406Z,1017.99
2023-09-30T00:55:25.344Z,1017.97
2023-09-30T00:56:26.201Z,1017.98
2023-09-30T00:57:26.080Z,1017.99
2023-09-30T00:58:25.307Z,1018.00
2023-09-30T00:59:25.303Z,1017.99
2023-09-30T01:00:25.331Z,1017.99
2023-09-30T01:01:25.319Z,1018.00
2023-09-30T01:02:25.295Z,1018.01
2023-09-30T01:03:25.494Z,1018.02
2023-09-30T01:04:25.312Z,1018.02
2023-09-30T01:05:25.234Z,1018.03
2023-09-30T01:06:25.279Z,1018.05
2023-09-30T01:07:25.222Z,1018.05
2023-09-30T01:08:25.211Z,1018.06
2023-09-30T01:09:25.217Z,1018.08
2023-09-30T01:10:25.167Z,1018.08
2023-09-30T01:11:26.106Z,1018.11
2023-09-30T01:12:25.182Z,1018.12
2023-09-30T01:13:25.139Z,1018.14
2023-09-30T01:14:25.122Z,1018.14
2023-09-30T01:15:25.165Z,1018.14
2023-09-30T01:16:25.687Z,1018.16
2023-09-30T01:17:25.121Z,1018.16
2023-09-30T01:18:25.705Z,1018.17
2023-09-30T01:19:25.084Z,1018.20
2023-09-30T01:20:25.077Z,1018.24
2023-09-30T01:21:25.105Z,1018.27
2023-09-30T01:22:25.055Z,1018.31
2023-09-30T01:23:25.033Z,1018.35
2023-09-30T01:24:25.549Z,1018.36
2023-09-30T01:25:25.005Z,1018.39
2023-09-30T01:26:24.997Z,1018.39
2023-09-30T01:27:24.989Z,1018.39
2023-09-30T01:28:24.980Z,1018.40
2023-09-30T01:29:24.950Z,1018.43
2023-09-30T01:30:24.968Z,1018.42
2023-09-30T01:31:25.002Z,1018.44
2023-09-30T01:32:24.932Z,1018.47
2023-09-30T01:33:24.930Z,1018.50
2023-09-30T01:34:24.889Z,1018.50
2023-09-30T01:35:24.890Z,1018.51
2023-09-30T01:36:24.948Z,1018.53
2023-09-30T01:37:24.892Z,1018.54
2023-09-30T01:38:24.864Z,1018.57
2023-09-30T01:39:24.943Z,1018.58
2023-09-30T01:40:24.819Z,1018.62
2023-09-30T01:41:24.815Z,1018.63
2023-09-30T01:42:25.494Z,1018.65
2023-09-30T01:43:24.820Z,1018.66
2023-09-30T01:44:24.782Z,1018.68
2023-09-30T01:45:25.752Z,1018.69
2023-09-30T01:46:24.773Z,1018.71
2023-09-30T01:47:24.798Z,1018.70
2023-09-30T01:48:24.784Z,1018.70
2023-09-30T01:49:24.721Z,1018.70
2023-09-30T01:50:25.683Z,1018.69
2023-09-30T01:51:24.773Z,1018.70
2023-09-30T01:52:24.681Z,1018.72
2023-09-30T01:53:24.699Z,1018.72
2023-09-30T01:54:24.740Z,1018.72
2023-09-30T01:55:24.654Z,1018.72
2023-09-30T01:56:24.681Z,1018.72
2023-09-30T01:57:24.649Z,1018.73
2023-09-30T01:58:24.631Z,1018.74
2023-09-30T01:59:24.614Z,1018.75
2023-09-30T02:00:24.648Z,1018.77
2023-09-30T02:01:24.609Z,1018.81
2023-09-30T02:02:24.576Z,1018.82
2023-09-30T02:03:24.857Z,1018.82
2023-09-30T02:04:24.697Z,1018.81
2023-09-30T02:05:24.543Z,1018.80
2023-09-30T02:06:24.539Z,1018.81
2023-09-30T02:07:24.532Z,1018.80
2023-09-30T02:08:24.924Z,1018.81
2023-09-30T02:09:24.523Z,1018.87
2023-09-30T02:10:24.478Z,1018.91
2023-09-30T02:11:24.465Z,1018.92
2023-09-30T02:12:24.546Z,1018.95
2023-09-30T02:13:25.602Z,1018.94
2023-09-30T02:14:24.415Z,1018.95
2023-09-30T02:15:24.463Z,1018.97
2023-09-30T02:16:24.483Z,1018.97
2023-09-30T02:17:25.236Z,1018.94
2023-09-30T02:18:24.403Z,1018.95
2023-09-30T02:19:24.393Z,1018.93
2023-09-30T02:20:25.130Z,1018.92
2023-09-30T02:21:24.364Z,1018.92
2023-09-30T02:22:24.340Z,1018.89
2023-09-30T02:23:24.322Z,1018.90
2023-09-30T02:24:24.454Z,1018.90
2023-09-30T02:25:24.313Z,1018.88
2023-09-30T02:26:24.281Z,1018.88
2023-09-30T02:27:24.341Z,1018.89
2023-09-30T02:28:24.266Z,1018.90
2023-09-30T02:29:24.283Z,1018.90
2023-09-30T02:30:25.665Z,1018.91
2023-09-30T02:31:24.257Z,1018.93
2023-09-30T02:32:24.213Z,1018.93
2023-09-30T02:33:24.349Z,1018.94
2023-09-30T02:34:24.238Z,1018.95
2023-09-30T02:35:24.192Z,1018.97
2023-09-30T02:36:24.254Z,1018.99
2023-09-30T02:37:24.170Z,1019.02
2023-09-30T02:38:24.192Z,1019.03
2023-09-30T02:39:24.301Z,1019.04
2023-09-30T02:40:24.130Z,1019.07
2023-09-30T02:41:24.118Z,1019.10
2023-09-30T02:42:24.168Z,1019.12
2023-09-30T02:43:24.122Z,1019.14
2023-09-30T02:44:24.099Z,1019.20
2023-09-30T02:45:24.092Z,1019.23
2023-09-30T02:46:24.058Z,1019.25
2023-09-30T02:47:24.069Z,1019.27
2023-09-30T02:48:24.126Z,1019.29
2023-09-30T02:49:24.053Z,1019.31
2023-09-30T02:50:24.565Z,1019.33
2023-09-30T02:51:24.071Z,1019.32
2023-09-30T02:52:23.987Z,1019.30
2023-09-30T02:53:24.010Z,1019.29
2023-09-30T02:54:24.001Z,1019.30
2023-09-30T02:55:23.969Z,1019.32
2023-09-30T02:56:23.940Z,1019.30
2023-09-30T02:57:23.962Z,1019.31
2023-09-30T02:58:23.943Z,1019.33
2023-09-30T02:59:23.945Z,1019.30
2023-09-30T03:00:24.065Z,1019.30
2023-09-30T03:01:24.076Z,1019.28
2023-09-30T03:02:24.413Z,1019.29
2023-09-30T03:03:24.435Z,1019.29
2023-09-30T03:04:23.911Z,1019.34
2023-09-30T03:05:23.852Z,1019.33
2023-09-30T03:06:23.850Z,1019.35
2023-09-30T03:07:23.867Z,1019.36
2023-09-30T03:08:23.840Z,1019.37
2023-09-30T03:09:23.923Z,1019.39
2023-09-30T03:10:23.776Z,1019.40
2023-09-30T03:11:24.442Z,1019.42
2023-09-30T03:12:23.797Z,1019.46
2023-09-30T03:13:23.774Z,1019.46
2023-09-30T03:14:23.733Z,1019.45
2023-09-30T03:15:23.807Z,1019.44
2023-09-30T03:16:23.721Z,1019.42
2023-09-30T03:17:23.713Z,1019.42
2023-09-30T03:18:24.553Z,1019.47
2023-09-30T03:19:23.688Z,1019.49
2023-09-30T03:20:23.693Z,1019.53
2023-09-30T03:21:24.240Z,1019.56
2023-09-30T03:22:23.644Z,1019.58
2023-09-30T03:23:23.662Z,1019.57
2023-09-30T03:24:23.648Z,1019.56
2023-09-30T03:25:23.775Z,1019.57
2023-09-30T03:26:23.615Z,1019.56
2023-09-30T03:27:24.169Z,1019.57
2023-09-30T03:28:23.603Z,1019.57
2023-09-30T03:29:23.572Z,1019.60
2023-09-30T03:30:24.099Z,1019.57
2023-09-30T03:31:23.589Z,1019.57
2023-09-30T03:32:23.531Z,1019.57
2023-09-30T03:33:23.639Z,1019.56
2023-09-30T03:34:23.502Z,1019.56
2023-09-30T03:35:23.521Z,1019.57
2023-09-30T03:36:23.485Z,1019.57
2023-09-30T03:37:24.260Z,1019.57
2023-09-30T03:38:23.473Z,1019.59
2023-09-30T03:39:23.475Z,1019.58
2023-09-30T03:40:23.452Z,1019.58
2023-09-30T03:41:23.451Z,1019.56
2023-09-30T03:42:23.464Z,1019.56
2023-09-30T03:43:23.422Z,1019.57
2023-09-30T03:44:23.381Z,1019.57
2023-09-30T03:45:23.433Z,1019.59
2023-09-30T03:46:23.387Z,1019.58
2023-09-30T03:47:23.355Z,1019.61
2023-09-30T03:48:23.384Z,1019.64
2023-09-30T03:49:23.416Z,1019.66
2023-09-30T03:50:23.344Z,1019.68
2023-09-30T03:51:23.370Z,1019.66
2023-09-30T03:52:23.292Z,1019.67
2023-09-30T03:53:23.315Z,1019.68
2023-09-30T03:54:23.313Z,1019.69
2023-09-30T03:55:23.270Z,1019.69
2023-09-30T03:56:23.275Z,1019.69
2023-09-30T03:57:23.284Z,1019.71
2023-09-30T03:58:23.238Z,1019.74
2023-09-30T03:59:23.219Z,1019.77
2023-09-30T04:00:23.278Z,1019.76
2023-09-30T04:01:23.236Z,1019.77
2023-09-30T04:02:23.180Z,1019.78
2023-09-30T04:03:23.298Z,1019.75
2023-09-30T04:04:23.229Z,1019.74
2023-09-30T04:05:23.150Z,1019.73
2023-09-30T04:06:23.189Z,1019.73
2023-09-30T04:07:23.157Z,1019.73
2023-09-30T04:08:23.112Z,1019.76
2023-09-30T04:09:23.117Z,1019.77
2023-09-30T04:10:23.087Z,1019.81
2023-09-30T04:11:23.094Z,1019.84
2023-09-30T04:12:23.118Z,1019.86
2023-09-30T04:13:23.077Z,1019.89
2023-09-30T04:14:23.040Z,1019.87
2023-09-30T04:15:23.084Z,1019.88
2023-09-30T04:16:23.028Z,1019.89
2023-09-30T04:17:23.016Z,1019.90
2023-09-30T04:18:23.028Z,1019.90
2023-09-30T04:19:22.994Z,1019.90
2023-09-30T04:20:23.001Z,1019.94
2023-09-30T04:21:22.999Z,1019.95
2023-09-30T04:22:22.948Z,1019.96
2023-09-30T04:23:22.950Z,1019.98
2023-09-30T04:24:22.946Z,1019.99
2023-09-30T04:25:22.917Z,1019.98
2023-09-30T04:26:22.920Z,1019.99
2023-09-30T04:27:23.025Z,1019.99
2023-09-30T04:28:22.881Z,1020.00
2023-09-30T04:29:22.894Z,1020.01
2023-09-30T04:30:22.921Z,1020.01
2023-09-30T04:31:23.264Z,1020.01
2023-09-30T04:32:22.982Z,1019.97
2023-09-30T04:33:22.904Z,1019.95
2023-09-30T04:34:22.844Z,1019.99
2023-09-30T04:35:22.933Z,1019.99
2023-09-30T04:36:22.818Z,1020.00
2023-09-30T04:37:22.830Z,1020.00
2023-09-30T04:38:22.776Z,1020.00
2023-09-30T04:39:22.787Z,1019.99
2023-09-30T04:40:22.735Z,1019.99
2023-09-30T04:41:22.762Z,1019.99
2023-09-30T04:42:22.756Z,1020.01
2023-09-30T04:43:22.709Z,1019.98
2023-09-30T04:44:22.704Z,1019.98
2023-09-30T04:45:22.772Z,1019.94
2023-09-30T04:46:22.745Z,1019.90
2023-09-30T04:47:22.676Z,1019.87
2023-09-30T04:48:22.655Z,1019.84
2023-09-30T04:49:22.646Z,1019.82
2023-09-30T04:50:22.641Z,1019.82
2023-09-30T04:51:22.652Z,1019.84
2023-09-30T04:52:22.602Z,1019.89
2023-09-30T04:53:22.605Z,1019.91
2023-09-30T04:54:22.582Z,1019.94
2023-09-30T04:55:22.583Z,1019.93
2023-09-30T04:56:22.590Z,1019.93
2023-09-30T04:57:22.602Z,1019.97
2023-09-30T04:58:24.996Z,1019.98
2023-09-30T04:59:22.518Z,1020.00
2023-09-30T05:00:23.545Z,1020.03
2023-09-30T05:01:22.594Z,1020.04
2023-09-30T05:02:22.493Z,1020.06
2023-09-30T05:03:23.325Z,1020.09
2023-09-30T05:04:22.506Z,1020.10
2023-09-30T05:05:22.451Z,1020.13
2023-09-30T05:06:22.494Z,1020.16
2023-09-30T05:07:22.427Z,1020.20
2023-09-30T05:08:22.431Z,1020.19
2023-09-30T05:09:22.407Z,1020.17
2023-09-30T05:10:22.416Z,1020.15
2023-09-30T05:11:22.400Z,1020.18
2023-09-30T05:12:22.460Z,1020.20
2023-09-30T05:13:22.364Z,1020.21
2023-09-30T05:14:22.372Z,1020.23
2023-09-30T05:15:22.383Z,1020.21
2023-09-30T05:16:22.513Z,1020.18
2023-09-30T05:17:22.880Z,1020.20
2023-09-30T05:18:22.436Z,1020.20
2023-09-30T05:19:22.292Z,1020.19
2023-09-30T05:20:22.315Z,1020.13
2023-09-30T05:21:22.316Z,1020.12
2023-09-30T05:22:22.255Z,1020.14
2023-09-30T05:23:22.253Z,1020.17
2023-09-30T05:24:22.277Z,1020.23
2023-09-30T05:25:22.210Z,1020.28
2023-09-30T05:26:22.237Z,1020.30
2023-09-30T05:27:22.818Z,1020.32
2023-09-30T05:28:22.188Z,1020.33
2023-09-30T05:29:22.169Z,1020.34
2023-09-30T05:30:22.198Z,1020.33
2023-09-30T05:31:22.279Z,1020.33
2023-09-30T05:32:22.148Z,1020.35
2023-09-30T05:33:22.136Z,1020.39
2023-09-30T05:34:22.117Z,1020.42
2023-09-30T05:35:22.099Z,1020.44
2023-09-30T05:36:22.159Z,1020.46
2023-09-30T05:37:22.081Z,1020.47
2023-09-30T05:38:22.076Z,1020.48
2023-09-30T05:39:22.079Z,1020.47
2023-09-30T05:40:22.055Z,1020.48
2023-09-30T05:41:22.046Z,1020.44
2023-09-30T05:42:22.032Z,1020.45
2023-09-30T05:43:22.012Z,1020.48
2023-09-30T05:44:21.997Z,1020.49
2023-09-30T05:45:22.021Z,1020.50
2023-09-30T05:46:22.030Z,1020.48
2023-09-30T05:47:21.983Z,1020.55
2023-09-30T05:48:22.040Z,1020.55
2023-09-30T05:49:21.944Z,1020.60
2023-09-30T05:50:21.952Z,1020.64
2023-09-30T05:51:21.942Z,1020.70
2023-09-30T05:52:21.961Z,1020.71
2023-09-30T05:53:21.927Z,1020.73
2023-09-30T05:54:21.928Z,1020.73
2023-09-30T05:55:21.957Z,1020.73
2023-09-30T05:56:21.922Z,1020.73
2023-09-30T05:57:21.900Z,1020.75
2023-09-30T05:58:22.026Z,1020.75
2023-09-30T05:59:21.829Z,1020.73
2023-09-30T06:00:21.916Z,1020.73
2023-09-30T06:01:21.845Z,1020.73
2023-09-30T06:02:21.808Z,1020.74
2023-09-30T06:03:21.868Z,1020.75
2023-09-30T06:04:21.814Z,1020.76
2023-09-30T06:05:21.748Z,1020.77
2023-09-30T06:06:21.767Z,1020.76
2023-09-30T06:07:21.733Z,1020.77
2023-09-30T06:08:21.755Z,1020.78
2023-09-30T06:09:21.723Z,1020.77
2023-09-30T06:10:21.700Z,1020.81
2023-09-30T06:11:21.684Z,1020.83
2023-09-30T06:12:21.694Z,1020.83
2023-09-30T06:13:21.696Z,1020.84
2023-09-30T06:14:21.665Z,1020.84
2023-09-30T06:15:21.689Z,1020.87
2023-09-30T06:16:21.702Z,1020.86
2023-09-30T06:17:21.613Z,1020.86
2023-09-30T06:18:21.644Z,1020.82
2023-09-30T06:19:21.612Z,1020.79
2023-09-30T06:20:21.585Z,1020.81
2023-09-30T06:21:21.651Z,1020.87
2023-09-30T06:22:21.569Z,1020.89
2023-09-30T06:23:21.580Z,1020.90
2023-09-30T06:24:21.596Z,1020.91
2023-09-30T06:25:21.621Z,1020.87
2023-09-30T06:26:21.518Z,1020.86
2023-09-30T06:27:21.506Z,1020.88
2023-09-30T06:28:21.493Z,1020.89
2023-09-30T06:29:21.508Z,1020.94
2023-09-30T06:30:21.721Z,1020.96
2023-09-30T06:31:21.515Z,1020.95
2023-09-30T06:32:21.450Z,1020.93
2023-09-30T06:33:21.460Z,1021.01
2023-09-30T06:34:21.428Z,1021.08
2023-09-30T06:35:23.351Z,1021.09
2023-09-30T06:36:21.446Z,1021.05
2023-09-30T06:37:21.382Z,1021.08
2023-09-30T06:38:21.381Z,1021.14
2023-09-30T06:39:21.376Z,1021.12
2023-09-30T06:40:21.402Z,1021.11
2023-09-30T06:41:21.335Z,1021.15
2023-09-30T06:42:21.335Z,1021.15
2023-09-30T06:43:21.314Z,1021.15
2023-09-30T06:44:21.319Z,1021.11
2023-09-30T06:45:21.360Z,1021.12
2023-09-30T06:46:21.306Z,1021.14
2023-09-30T06:47:21.268Z,1021.17
2023-09-30T06:48:21.274Z,1021.15
2023-09-30T06:49:21.274Z,1021.14
2023-09-30T06:50:21.240Z,1021.18
2023-09-30T06:51:21.270Z,1021.19
2023-09-30T06:52:21.224Z,1021.20
2023-09-30T06:53:21.201Z,1021.19
2023-09-30T06:54:21.204Z,1021.17
2023-09-30T06:55:21.181Z,1021.21
2023-09-30T06:56:21.196Z,1021.23
2023-09-30T06:57:21.205Z,1021.25
2023-09-30T06:58:21.142Z,1021.23
2023-09-30T06:59:21.139Z,1021.22
2023-09-30T07:00:21.170Z,1021.25
2023-09-30T07:01:21.173Z,1021.27
2023-09-30T07:02:21.104Z,1021.28
2023-09-30T07:03:24.064Z,1021.31
2023-09-30T07:04:21.180Z,1021.32
2023-09-30T07:05:21.061Z,1021.33
2023-09-30T07:06:21.095Z,1021.34
2023-09-30T07:07:21.085Z,1021.32
2023-09-30T07:08:21.028Z,1021.34
2023-09-30T07:09:21.520Z,1021.40
2023-09-30T07:10:21.037Z,1021.46
2023-09-30T07:11:20.997Z,1021.49
2023-09-30T07:12:21.039Z,1021.51
2023-09-30T07:13:20.967Z,1021.48
2023-09-30T07:14:20.963Z,1021.52
2023-09-30T07:15:20.984Z,1021.49
2023-09-30T07:16:20.972Z,1021.50
2023-09-30T07:17:20.970Z,1021.52
2023-09-30T07:18:21.070Z,1021.53
2023-09-30T07:19:20.895Z,1021.53
2023-09-30T07:20:20.917Z,1021.53
2023-09-30T07:21:20.900Z,1021.60
2023-09-30T07:22:29.839Z,1021.67
2023-09-30T07:23:21.151Z,1021.66
2023-09-30T07:24:20.871Z,1021.65
2023-09-30T07:25:20.850Z,1021.64
2023-09-30T07:26:20.834Z,1021.70
2023-09-30T07:27:27.692Z,1021.72
2023-09-30T07:28:20.804Z,1021.67
2023-09-30T07:29:20.790Z,1021.66
2023-09-30T07:30:20.867Z,1021.63
2023-09-30T07:31:20.800Z,1021.65
2023-09-30T07:32:20.767Z,1021.66
2023-09-30T07:33:20.857Z,1021.70
2023-09-30T07:34:20.827Z,1021.71
2023-09-30T07:35:20.738Z,1021.71
2023-09-30T07:36:20.737Z,1021.71
2023-09-30T07:37:20.689Z,1021.70
2023-09-30T07:38:20.694Z,1021.72
2023-09-30T07:39:20.705Z,1021.77
2023-09-30T07:40:20.690Z,1021.79
2023-09-30T07:41:20.657Z,1021.81
2023-09-30T07:42:20.652Z,1021.79
2023-09-30T07:43:20.628Z,1021.79
2023-09-30T07:44:20.612Z,1021.79
2023-09-30T07:45:20.636Z,1021.77
2023-09-30T07:46:20.721Z,1021.80
2023-09-30T07:47:20.584Z,1021.78
2023-09-30T07:48:20.615Z,1021.79
2023-09-30T07:49:20.544Z,1021.78
2023-09-30T07:50:20.601Z,1021.85
2023-09-30T07:51:20.560Z,1021.84
2023-09-30T07:52:20.527Z,1021.84
2023-09-30T07:53:20.512Z,1021.87
2023-09-30T07:55:20.483Z,1021.97
2023-09-30T07:56:20.469Z,1021.93
2023-09-30T07:57:20.505Z,1021.93
2023-09-30T07:58:20.445Z,1021.91
2023-09-30T07:59:20.435Z,1021.90
2023-09-30T08:00:20.442Z,1021.96
2023-09-30T08:01:20.439Z,1021.94
2023-09-30T08:02:20.426Z,1021.93
2023-09-30T08:03:20.450Z,1021.93
2023-09-30T08:04:20.460Z,1021.93
2023-09-30T08:05:20.365Z,1021.92
2023-09-30T08:06:20.421Z,1021.93
2023-09-30T08:07:20.379Z,1021.93
2023-09-30T08:08:20.344Z,1021.94
2023-09-30T08:09:20.381Z,1021.96
2023-09-30T08:10:20.316Z,1021.95
2023-09-30T08:11:20.301Z,1021.98
2023-09-30T08:12:20.348Z,1021.99
2023-09-30T08:13:20.276Z,1021.98
2023-09-30T08:14:20.276Z,1021.98
2023-09-30T08:15:20.360Z,1021.96
2023-09-30T08:16:22.165Z,1022.02
2023-09-30T08:17:20.255Z,1022.03
2023-09-30T08:18:20.256Z,1022.06
2023-09-30T08:19:20.775Z,1022.04
2023-09-30T08:20:20.215Z,1022.04
2023-09-30T08:21:20.228Z,1022.06
2023-09-30T08:22:20.215Z,1022.03
2023-09-30T08:23:20.167Z,1022.06
2023-09-30T08:24:20.233Z,1022.08
2023-09-30T08:25:20.137Z,1022.08
2023-09-30T08:26:20.162Z,1022.08
2023-09-30T08:27:20.162Z,1022.09
2023-09-30T08:28:20.124Z,1022.10
2023-09-30T08:29:20.092Z,1022.08
2023-09-30T08:30:20.154Z,1022.08
2023-09-30T08:31:20.117Z,1022.08
2023-09-30T08:32:20.091Z,1022.09
2023-09-30T08:33:20.084Z,1022.09
2023-09-30T08:34:20.049Z,1022.13
2023-09-30T08:35:20.042Z,1022.12
2023-09-30T08:36:20.275Z,1022.11
2023-09-30T08:37:20.027Z,1022.10
2023-09-30T08:38:20.012Z,1022.09
2023-09-30T08:39:20.034Z,1022.08
2023-09-30T08:40:19.978Z,1022.09
2023-09-30T08:41:19.956Z,1022.05
2023-09-30T08:42:20.020Z,1022.04
2023-09-30T08:43:20.017Z,1022.04
2023-09-30T08:44:19.956Z,1022.05
2023-09-30T08:45:19.941Z,1022.08
2023-09-30T08:46:19.996Z,1022.07
2023-09-30T08:47:19.896Z,1022.07
2023-09-30T08:48:19.900Z,1022.06
2023-09-30T08:49:19.895Z,1022.06
2023-09-30T08:50:19.865Z,1022.05
2023-09-30T08:51:21.727Z,1022.06
2023-09-30T08:52:19.845Z,1022.05
2023-09-30T08:53:19.818Z,1022.05
2023-09-30T08:54:19.868Z,1022.08
2023-09-30T08:55:19.800Z,1022.07
2023-09-30T08:56:19.802Z,1022.10
2023-09-30T08:57:19.817Z,1022.10
2023-09-30T08:58:19.785Z,1022.11
2023-09-30T08:59:19.782Z,1022.13
2023-09-30T09:00:19.775Z,1022.13
2023-09-30T09:01:19.771Z,1022.12
2023-09-30T09:02:19.732Z,1022.11
2023-09-30T09:03:19.781Z,1022.07
2023-09-30T09:04:19.811Z,1022.06
2023-09-30T09:05:19.682Z,1022.04
2023-09-30T09:06:19.694Z,1022.05
2023-09-30T09:07:19.658Z,1022.02
2023-09-30T09:08:19.661Z,1022.02
2023-09-30T09:09:19.688Z,1022.02
2023-09-30T09:10:19.661Z,1022.03
2023-09-30T09:11:19.623Z,1022.05
2023-09-30T09:12:19.629Z,1022.05
2023-09-30T09:13:19.599Z,1022.04
2023-09-30T09:14:19.580Z,1022.03
2023-09-30T09:15:19.656Z,1022.03
2023-09-30T09:16:19.717Z,1022.00
2023-09-30T09:17:19.610Z,1021.98
2023-09-30T09:18:19.565Z,1021.99
2023-09-30T09:19:19.526Z,1022.03
2023-09-30T09:20:19.534Z,1022.02
2023-09-30T09:21:19.563Z,1022.04
2023-09-30T09:22:19.486Z,1022.06
2023-09-30T09:23:19.492Z,1022.05
2023-09-30T09:24:19.478Z,1022.03
2023-09-30T09:25:19.500Z,1022.01
2023-09-30T09:26:19.445Z,1022.00
2023-09-30T09:27:19.501Z,1022.04
2023-09-30T09:28:19.405Z,1022.08
2023-09-30T09:29:19.416Z,1022.06
2023-09-30T09:30:19.654Z,1022.07
2023-09-30T09:31:19.491Z,1022.10
2023-09-30T09:32:19.358Z,1022.11
2023-09-30T09:33:19.356Z,1022.11
2023-09-30T09:34:19.336Z,1022.08
2023-09-30T09:35:19.338Z,1022.09
2023-09-30T09:36:19.355Z,1022.13
2023-09-30T09:37:19.340Z,1022.12
2023-09-30T09:38:19.292Z,1022.09
2023-09-30T09:39:19.330Z,1022.09
2023-09-30T09:40:19.272Z,1022.12
2023-09-30T09:41:19.306Z,1022.12
2023-09-30T09:42:19.249Z,1022.14
2023-09-30T09:43:19.244Z,1022.11
2023-09-30T09:44:19.231Z,1022.11
2023-09-30T09:45:19.217Z,1022.08
2023-09-30T09:46:19.273Z,1022.08
2023-09-30T09:47:19.208Z,1022.07
2023-09-30T09:48:19.168Z,1022.06
2023-09-30T09:49:19.211Z,1022.07
2023-09-30T09:50:19.160Z,1022.11
2023-09-30T09:51:19.164Z,1022.12
2023-09-30T09:52:19.233Z,1022.15
2023-09-30T09:53:19.124Z,1022.11
2023-09-30T09:54:19.110Z,1022.15
2023-09-30T09:55:19.127Z,1022.12
2023-09-30T09:56:19.109Z,1022.12
2023-09-30T09:57:19.083Z,1022.11
2023-09-30T09:58:19.061Z,1022.08
2023-09-30T09:59:19.054Z,1022.09
2023-09-30T10:00:19.060Z,1022.07
2023-09-30T10:01:19.120Z,1022.05
2023-09-30T10:02:19.150Z,1022.05
2023-09-30T10:03:19.049Z,1022.06
2023-09-30T10:04:18.990Z,1022.09
2023-09-30T10:05:19.036Z,1022.04
2023-09-30T10:06:19.022Z,1022.12
2023-09-30T10:07:18.969Z,1022.13
2023-09-30T10:08:18.938Z,1022.16
2023-09-30T10:09:18.967Z,1022.10
2023-09-30T10:10:18.926Z,1022.10
2023-09-30T10:11:18.927Z,1022.11
2023-09-30T10:12:18.927Z,1022.04
2023-09-30T10:13:18.893Z,1022.06
2023-09-30T10:14:18.879Z,1022.06
2023-09-30T10:15:18.877Z,1022.09
2023-09-30T10:16:18.869Z,1022.12
2023-09-30T10:17:18.868Z,1022.07
2023-09-30T10:18:18.840Z,1022.11
2023-09-30T10:19:19.028Z,1022.07
2023-09-30T10:20:18.812Z,1022.05
2023-09-30T10:21:18.846Z,1022.08
2023-09-30T10:22:18.816Z,1022.12
2023-09-30T10:23:18.987Z,1022.08
2023-09-30T10:24:18.758Z,1022.11
2023-09-30T10:25:18.801Z,1022.12
2023-09-30T10:26:18.754Z,1022.10
2023-09-30T10:27:18.746Z,1022.12
2023-09-30T10:28:18.741Z,1022.11
2023-09-30T10:29:18.721Z,1022.11
2023-09-30T10:30:18.719Z,1022.11
2023-09-30T10:31:18.839Z,1022.10
2023-09-30T10:32:18.699Z,1022.13
2023-09-30T10:33:18.677Z,1022.17
2023-09-30T10:34:18.639Z,1022.20
2023-09-30T10:35:18.642Z,1022.18
2023-09-30T10:36:18.628Z,1022.16
2023-09-30T10:37:18.633Z,1022.13
2023-09-30T10:38:18.595Z,1022.15
2023-09-30T10:39:18.593Z,1022.16
2023-09-30T10:40:18.599Z,1022.17
2023-09-30T10:41:18.642Z,1022.12
2023-09-30T10:42:18.573Z,1022.17
2023-09-30T10:43:18.556Z,1022.15
2023-09-30T10:44:18.524Z,1022.13
2023-09-30T10:45:19.546Z,1022.16
2023-09-30T10:46:18.563Z,1022.22
2023-09-30T10:47:18.528Z,1022.19
2023-09-30T10:48:18.482Z,1022.24
2023-09-30T10:49:18.507Z,1022.17
2023-09-30T10:50:18.460Z,1022.25
2023-09-30T10:51:18.454Z,1022.22
2023-09-30T10:52:18.457Z,1022.26
2023-09-30T10:53:18.441Z,1022.25
2023-09-30T10:54:18.411Z,1022.17
2023-09-30T10:55:18.411Z,1022.27
2023-09-30T10:56:18.378Z,1022.24
2023-09-30T10:57:18.408Z,1022.25
2023-09-30T10:58:18.361Z,1022.21
2023-09-30T10:59:18.366Z,1022.19
2023-09-30T11:33:59.233Z,1021.92
2023-09-30T11:35:00.171Z,1021.90
2023-09-30T11:36:00.210Z,1021.87
2023-09-30T11:37:00.190Z,1021.86
2023-09-30T11:38:00.127Z,1021.88
2023-09-30T11:39:02.772Z,1021.86
2023-09-30T11:40:00.206Z,1021.87
2023-09-30T11:41:00.085Z,1021.83
2023-09-30T11:42:00.116Z,1021.82
2023-09-30T11:43:00.110Z,1021.82
2023-09-30T11:44:00.060Z,1021.83
2023-09-30T11:45:00.034Z,1021.78
2023-09-30T11:46:00.125Z,1021.76
2023-09-30T11:47:00.063Z,1021.74
2023-09-30T11:48:00.032Z,1021.73
2023-09-30T11:49:00.370Z,1021.71
2023-09-30T11:49:59.986Z,1021.69
2023-09-30T11:51:00.000Z,1021.68
2023-09-30T11:52:00.135Z,1021.68
2023-09-30T11:52:59.945Z,1021.66
2023-09-30T11:53:59.941Z,1021.70
2023-09-30T11:54:59.949Z,1021.68
2023-09-30T11:55:59.953Z,1021.70
2023-09-30T11:56:59.898Z,1021.73
2023-09-30T11:57:59.986Z,1021.74
2023-09-30T11:59:00.231Z,1021.72
2023-09-30T11:59:59.872Z,1021.74
2023-09-30T12:00:59.882Z,1021.73
2023-09-30T12:02:13.810Z,1021.73
2023-09-30T12:02:59.922Z,1021.72
2023-09-30T12:03:59.879Z,1021.74
2023-09-30T12:04:59.827Z,1021.74
2023-09-30T12:05:59.803Z,1021.70
2023-09-30T12:06:59.819Z,1021.70
2023-09-30T12:07:59.814Z,1021.72
2023-09-30T12:09:00.070Z,1021.73
2023-09-30T12:09:59.812Z,1021.66
2023-09-30T12:10:59.744Z,1021.70
2023-09-30T12:11:59.820Z,1021.72
2023-09-30T12:12:59.761Z,1021.70
2023-09-30T12:13:59.708Z,1021.68
2023-09-30T12:14:59.728Z,1021.67
2023-09-30T12:15:59.745Z,1021.69
2023-09-30T12:16:59.767Z,1021.67
2023-09-30T12:17:59.716Z,1021.66
2023-09-30T12:18:59.969Z,1021.62
2023-09-30T12:19:59.645Z,1021.61
2023-09-30T12:20:59.622Z,1021.58
2023-09-30T12:21:59.700Z,1021.65
2023-09-30T12:22:59.636Z,1021.68
2023-09-30T12:23:59.597Z,1021.63
2023-09-30T12:24:59.626Z,1021.60
2023-09-30T12:26:12.928Z,1021.60
2023-09-30T12:26:59.575Z,1021.64
2023-09-30T12:27:59.623Z,1021.62
2023-09-30T12:28:59.883Z,1021.59
2023-09-30T12:29:59.532Z,1021.57
2023-09-30T12:30:59.562Z,1021.58
2023-09-30T12:31:59.576Z,1021.63
2023-09-30T12:32:59.564Z,1021.61
2023-09-30T12:33:59.543Z,1021.54
2023-09-30T12:34:59.475Z,1021.54
2023-09-30T12:35:59.456Z,1021.55
2023-09-30T12:36:59.513Z,1021.57
2023-09-30T12:38:00.035Z,1021.56
2023-09-30T12:38:59.652Z,1021.52
2023-09-30T12:39:59.491Z,1021.49